Terminal Aerodrome Forecast
Issued by NWS Charleston, WV

Current Version | Previous Version | Text Only | Print | Product List | Glossary Off
Versions: 1 2 3 4 5 6 7 8 9 10 11 12 13 14 15 16 17 18 19 20 21 22 23 24 25 26 27

000
FTUS41 KRLX 080200 AAA
TAFBKW
TAF AMD
KBKW 080233Z 0803/0824 23007KT P6SM SCT050
     FM081400 24008KT P6SM BKN040
     FM081600 23014G20KT P6SM VCTS BKN040CB
     FM081800 23015G22KT 6SM +SHRA BR VCTS BKN040CB
     FM082200 23012G19KT 5SM +TSRA BR BKN035CB=

USA.gov is the U.S. government's official web portal to all federal, state and local government web resources and services.